Terminal Aerodrome Forecast
Issued by NWS

Home | Current Version | Previous Version | Graphics & Text | Print | Product List | Glossary On
Versions: 1 2 3 4 5 6 7 8 9 10 11 12 13 14 15 16 17
274
FTUS41 KCLE 182336
TAFFDY
TAF
KFDY 182336Z 1900/1924 27012KT P6SM SCT050
     FM190400 25004KT P6SM BKN100
     FM191200 19004KT 6SM -SHRA VCTS OVC050CB
     FM191600 26008KT P6SM BKN070
     FM191900 30008KT P6SM SCT070=

USA.gov is the U.S. government's official web portal to all federal, state and local government web resources and services.